This is the latest recevied weather packets stored in our database for station/object N4QEP-13. If no packets are shown the sender has not sent any weather packets the latest 1 day(s).
| Time | Temp. | Humidity | Pressure | Rain* | Wind** | Luminosity | Snow |
|---|---|---|---|---|---|---|---|
| 1836274731 | 23.33° C | 66% | 1017 hPa | 0 mm | 0 m/s | - | - |
| 1778035558 | 18.89° C | 70% | 1015.4 hPa | 0 mm | 0 m/s | - | - |
| 1778034618 | 19.44° C | 68% | 1015.2 hPa | 0 mm | 0 m/s | - | - |
| 1778033721 | 19.44° C | 68% | 1015.1 hPa | 0 mm | 0 m/s | - | - |
| 1778032848 | 20° C | 67% | 1014.9 hPa | 0 mm | 0 m/s | - | - |
| 1778031947 | 20° C | 67% | 1015 hPa | 0 mm | 0 m/s | - | - |
| 1778031018 | 20.56° C | 67% | 1015.1 hPa | 0 mm | 0 m/s | - | - |
| 1778030128 | 20.56° C | 68% | 1015.1 hPa | 0 mm | 0 m/s | - | - |
| 1778029215 | 21.11° C | 67% | 1014.8 hPa | 0 mm | 0 m/s | - | - |
| 1778028314 | 21.67° C | 66% | 1014.7 hPa | 0 mm | 0 m/s | - | - |
| 1778027416 | 21.67° C | 65% | 1014.8 hPa | 0 mm | 0 m/s | - | - |
| 1778026513 | 22.22° C | 63% | 1014.7 hPa | 0 mm | 0 m/s | - | - |
| 1778025611 | 22.78° C | 62% | 1014.8 hPa | 0 mm | 0 m/s | - | - |
| 1778024709 | 23.33° C | 60% | 1014.8 hPa | 0 mm | 0 m/s | - | - |
| 1778023809 | 23.89° C | 58% | 1014.7 hPa | 0 mm | 0 m/s | - | - |
| 1778022910 | 24.44° C | 57% | 1014.5 hPa | 0 mm | 0 m/s | - | - |
| 1778022020 | 24.44° C | 58% | 1014.6 hPa | 0 mm | 0 m/s | - | - |
| 1778021105 | 25° C | 56% | 1014.5 hPa | 0 mm | 0 m/s | - | - |
| 1778020203 | 25.56° C | 53% | 1014.5 hPa | 0 mm | 0 m/s | - | - |
| 1778019303 | 25.56° C | 54% | 1014.3 hPa | 0 mm | 0.89 m/s, 200° | - | - |
| 1778018462 | 26.11° C | 54% | 1014.4 hPa | 0 mm | 0.45 m/s, 205° | - | - |
| 1778017563 | 25.56° C | 54% | 1014.6 hPa | 0 mm | 0.45 m/s, 146° | - | - |
| 1778016662 | 26.11° C | 51% | 1014.6 hPa | 0 mm | 0.45 m/s, 237° | - | - |
| 1778015756 | 26.11° C | 53% | 1014.6 hPa | 0 mm | 0 m/s | - | - |
| 1778014854 | 26.11° C | 54% | 1014.7 hPa | 0 mm | 0.45 m/s, 230° | - | - |
* Rain latest hour (hover to see other rain measurements)
** Current wind speed in m/s (hover to see current wind gust speed)